Time;durP1;ratioP1;P1;durP2;ratioP2;P2;SDS_P1;SDS_P2;PMS_P1;PMS_P2;Temp;Humidity;BMP_temperature;BMP_pressure;BME280_temperature;BME280_humidity;BME280_pressure;Samples;Min_cycle;Max_cycle;Signal;HPM_P1;HPM_P2
2023/10/26 00:00:30;;;;;;;4.30;1.60;;;10.90;99.90;;;;;;5011776;28;20488;-74
2023/10/26 00:02:56;;;;;;;1.90;1.40;;;10.90;99.90;;;;;;4995137;28;20186;-73
2023/10/26 00:05:22;;;;;;;2.07;1.70;;;10.90;99.90;;;;;;4989442;28;20681;-73
2023/10/26 00:07:47;;;;;;;2.53;1.90;;;10.90;99.90;;;;;;4988588;28;20430;-74
2023/10/26 00:10:13;;;;;;;1.90;1.70;;;10.90;99.90;;;;;;5019093;28;20197;-73
2023/10/26 00:12:39;;;;;;;1.73;1.63;;;10.90;99.90;;;;;;5007061;28;20293;-74
2023/10/26 00:15:06;;;;;;;1.77;1.40;;;10.90;99.90;;;;;;5008347;28;20517;-73
2023/10/26 00:17:31;;;;;;;1.53;1.43;;;10.90;99.90;;;;;;5006631;28;20189;-75
2023/10/26 00:19:57;;;;;;;1.63;1.40;;;10.90;99.90;;;;;;5007784;28;20487;-74
2023/10/26 00:22:23;;;;;;;1.40;1.30;;;10.90;99.90;;;;;;5006757;28;20217;-73
2023/10/26 00:24:50;;;;;;;1.50;1.40;;;10.90;99.90;;;;;;5007841;28;20191;-74
2023/10/26 00:27:16;;;;;;;1.73;1.63;;;10.90;99.90;;;;;;5007196;28;20469;-74
2023/10/26 00:29:42;;;;;;;1.50;1.40;;;10.90;99.90;;;;;;4991069;28;20531;-75
2023/10/26 00:32:09;;;;;;;2.80;1.80;;;10.80;99.90;;;;;;5006291;28;20962;-73
2023/10/26 00:34:35;;;;;;;2.03;1.90;;;10.80;99.90;;;;;;5005098;28;20421;-75
2023/10/26 00:37:02;;;;;;;2.37;1.80;;;10.80;99.90;;;;;;4991716;28;20441;-74
2023/10/26 00:39:28;;;;;;;2.40;2.13;;;10.80;99.90;;;;;;5004398;28;20460;-75
2023/10/26 00:41:55;;;;;;;3.13;2.20;;;10.80;99.90;;;;;;4988143;28;20670;-74
2023/10/26 00:44:21;;;;;;;4.83;1.80;;;10.80;99.90;;;;;;5022288;28;20563;-74
2023/10/26 00:46:50;;;;;;;1.87;1.70;;;10.80;99.90;;;;;;5005307;28;20468;-74
2023/10/26 00:49:17;;;;;;;3.20;2.03;;;10.80;99.90;;;;;;5006588;28;20441;-73
2023/10/26 00:51:50;;;;;;;2.23;1.80;;;10.80;99.90;;;;;;5000551;28;20509;-73
2023/10/26 00:54:18;;;;;;;2.17;1.87;;;10.80;99.90;;;;;;5006553;28;20433;-71
2023/10/26 00:56:44;;;;;;;1.73;1.63;;;10.70;99.90;;;;;;4984326;28;20484;-74
2023/10/26 00:59:10;;;;;;;2.30;2.10;;;10.80;99.90;;;;;;5007517;28;20436;-73
2023/10/26 01:01:37;;;;;;;3.50;2.40;;;10.80;99.90;;;;;;5005945;28;20991;-75
2023/10/26 01:04:06;;;;;;;2.00;1.83;;;10.80;99.90;;;;;;5006859;28;20186;-73
2023/10/26 01:06:32;;;;;;;3.03;2.20;;;10.80;99.90;;;;;;5006391;28;20460;-74
2023/10/26 01:08:58;;;;;;;2.60;2.23;;;10.80;99.90;;;;;;5002564;28;20433;-74
2023/10/26 01:11:24;;;;;;;1.90;1.80;;;10.80;99.90;;;;;;5005307;28;20217;-73
2023/10/26 01:13:50;;;;;;;1.80;1.70;;;10.80;99.90;;;;;;4985240;28;20433;-74
2023/10/26 01:16:16;;;;;;;2.63;2.20;;;10.80;99.90;;;;;;5007099;28;20206;-74
2023/10/26 01:18:42;;;;;;;3.87;2.67;;;10.80;99.90;;;;;;5007681;28;20228;-74
2023/10/26 01:21:09;;;;;;;1.83;1.73;;;10.80;99.90;;;;;;5009353;28;20840;-75
2023/10/26 01:23:35;;;;;;;2.60;2.27;;;10.80;99.90;;;;;;5008485;28;20190;-74
2023/10/26 01:26:01;;;;;;;3.63;2.20;;;10.80;99.90;;;;;;4990501;28;20461;-75
2023/10/26 01:28:26;;;;;;;3.13;2.40;;;10.80;99.90;;;;;;5006697;28;20213;-76
2023/10/26 01:30:52;;;;;;;2.80;2.40;;;10.80;99.90;;;;;;4992977;28;20186;-74
2023/10/26 01:33:19;;;;;;;3.63;2.90;;;10.80;99.90;;;;;;5008231;28;20280;-74
2023/10/26 01:35:45;;;;;;;4.90;3.13;;;10.80;99.90;;;;;;4990737;28;20492;-74
2023/10/26 01:38:14;;;;;;;3.33;2.80;;;10.70;99.90;;;;;;5007068;28;20967;-75
2023/10/26 01:40:40;;;;;;;3.20;2.70;;;10.70;99.90;;;;;;5007974;28;20428;-74
2023/10/26 01:43:06;;;;;;;6.97;3.00;;;10.70;99.90;;;;;;5006014;28;20444;-74
2023/10/26 01:45:31;;;;;;;2.90;2.60;;;10.80;99.90;;;;;;5006674;28;20210;-75
2023/10/26 01:48:02;;;;;;;2.60;2.10;;;10.70;99.90;;;;;;5008109;28;20216;-74
2023/10/26 01:50:29;;;;;;;2.80;2.40;;;10.70;99.90;;;;;;5006008;28;20218;-73
2023/10/26 01:52:55;;;;;;;3.33;2.80;;;10.70;99.90;;;;;;5003635;28;20519;-73
2023/10/26 01:55:22;;;;;;;3.10;2.77;;;10.70;99.90;;;;;;4990017;28;20503;-74
2023/10/26 01:57:48;;;;;;;3.20;2.83;;;10.70;99.90;;;;;;5007972;28;20432;-75
2023/10/26 02:00:14;;;;;;;3.07;2.70;;;10.70;99.90;;;;;;4990941;28;20194;-75
2023/10/26 02:02:41;;;;;;;3.00;2.67;;;10.70;99.90;;;;;;4991174;28;20194;-74
2023/10/26 02:05:07;;;;;;;3.40;2.87;;;10.70;99.90;;;;;;5008016;28;20420;-74
2023/10/26 02:07:33;;;;;;;3.20;2.80;;;10.80;99.90;;;;;;5006859;28;20947;-74
2023/10/26 02:09:59;;;;;;;2.90;2.60;;;10.80;99.90;;;;;;4990987;28;20451;-75
2023/10/26 02:12:25;;;;;;;2.80;2.60;;;10.80;99.90;;;;;;4991690;28;20214;-74
2023/10/26 02:14:51;;;;;;;2.40;2.20;;;10.70;99.90;;;;;;4989480;28;20426;-74
2023/10/26 02:17:16;;;;;;;2.60;2.40;;;10.70;99.90;;;;;;5005740;28;20248;-74
2023/10/26 02:19:42;;;;;;;2.87;2.40;;;10.70;99.90;;;;;;5007013;28;20237;-74
2023/10/26 02:22:08;;;;;;;2.60;2.40;;;10.70;99.90;;;;;;5007547;28;20415;-75
2023/10/26 02:24:34;;;;;;;3.03;2.57;;;10.70;99.90;;;;;;4997276;28;20248;-73
2023/10/26 02:26:59;;;;;;;3.07;2.77;;;10.60;99.90;;;;;;5001574;28;20199;-74
2023/10/26 02:29:25;;;;;;;2.67;2.47;;;10.70;99.90;;;;;;4989367;28;20206;-73
2023/10/26 02:31:51;;;;;;;3.00;2.63;;;10.70;99.90;;;;;;4990671;28;20625;-74
2023/10/26 02:34:16;;;;;;;2.53;2.33;;;10.70;99.90;;;;;;5007623;28;20182;-74
2023/10/26 02:36:42;;;;;;;3.97;3.57;;;10.70;99.90;;;;;;4990634;28;20228;-74
2023/10/26 02:39:08;;;;;;;3.07;2.77;;;10.70;99.90;;;;;;5008033;28;20531;-72
2023/10/26 02:41:33;;;;;;;3.80;3.10;;;10.70;99.90;;;;;;5006168;28;20194;-74
2023/10/26 02:43:59;;;;;;;3.20;2.77;;;10.70;99.90;;;;;;5007045;28;20186;-74
2023/10/26 02:46:24;;;;;;;3.00;2.30;;;10.60;99.90;;;;;;5006899;28;20707;-74
2023/10/26 02:48:50;;;;;;;3.10;2.50;;;10.60;99.90;;;;;;5000624;28;20186;-74
2023/10/26 02:51:16;;;;;;;3.87;2.97;;;10.60;99.90;;;;;;5017076;28;20190;-74
2023/10/26 02:53:42;;;;;;;4.07;2.87;;;10.60;99.90;;;;;;4990504;28;20170;-74
2023/10/26 02:56:08;;;;;;;3.03;2.70;;;10.70;99.90;;;;;;4990713;28;20202;-73
2023/10/26 02:58:34;;;;;;;2.80;2.43;;;10.60;99.90;;;;;;5006616;28;20441;-74
2023/10/26 03:01:00;;;;;;;8.40;2.70;;;10.60;99.90;;;;;;5006220;28;20528;-75
2023/10/26 03:03:25;;;;;;;3.00;2.70;;;10.60;99.90;;;;;;5007230;28;20193;-74
2023/10/26 03:05:51;;;;;;;4.00;2.77;;;10.60;99.90;;;;;;4997029;28;20206;-74
2023/10/26 03:08:17;;;;;;;2.53;2.30;;;10.60;99.90;;;;;;5006720;28;20178;-74
2023/10/26 03:10:43;;;;;;;2.23;2.03;;;10.60;99.90;;;;;;4989893;28;20190;-75
2023/10/26 03:13:10;;;;;;;2.83;2.60;;;10.60;99.90;;;;;;4987960;28;20477;-74
2023/10/26 03:15:36;;;;;;;2.37;2.17;;;10.60;99.90;;;;;;5022874;28;20460;-74
2023/10/26 03:18:02;;;;;;;2.70;2.40;;;10.60;99.90;;;;;;4990672;28;20425;-75
2023/10/26 03:20:27;;;;;;;2.97;2.67;;;10.60;99.90;;;;;;5006747;28;20695;-75
2023/10/26 03:22:53;;;;;;;3.60;2.83;;;10.60;99.90;;;;;;5004659;28;20187;-74
2023/10/26 03:25:20;;;;;;;2.43;2.20;;;10.60;99.90;;;;;;5006462;28;20204;-74
2023/10/26 03:27:46;;;;;;;2.53;2.33;;;10.60;99.90;;;;;;5005407;28;20425;-75
2023/10/26 03:30:12;;;;;;;3.00;2.67;;;10.60;99.90;;;;;;4990595;28;20195;-71
2023/10/26 03:32:37;;;;;;;2.77;2.57;;;10.60;99.90;;;;;;5006462;28;20296;-74
2023/10/26 03:35:04;;;;;;;4.00;3.60;;;10.70;99.90;;;;;;4988419;28;20252;-71
2023/10/26 03:37:30;;;;;;;2.80;2.00;;;10.70;99.90;;;;;;5003242;28;20268;-72
2023/10/26 03:39:55;;;;;;;2.90;2.70;;;10.70;99.90;;;;;;4991796;28;20516;-74
2023/10/26 03:42:21;;;;;;;4.50;2.07;;;10.70;99.90;;;;;;4992199;28;20569;-75
2023/10/26 03:44:47;;;;;;;2.83;2.53;;;10.70;99.90;;;;;;5008974;28;20182;-75
2023/10/26 03:47:13;;;;;;;2.60;2.40;;;10.60;99.90;;;;;;4992411;28;20758;-74
2023/10/26 03:49:38;;;;;;;2.60;2.40;;;10.60;99.90;;;;;;5010265;28;20550;-75
2023/10/26 03:52:04;;;;;;;3.03;2.80;;;10.50;99.90;;;;;;4993899;28;20448;-75
2023/10/26 03:54:30;;;;;;;4.07;3.50;;;10.50;99.90;;;;;;4993107;28;20206;-73
2023/10/26 03:56:56;;;;;;;4.80;4.30;;;10.40;99.90;;;;;;4993847;28;20543;-74
2023/10/26 03:59:21;;;;;;;3.70;3.40;;;10.40;99.90;;;;;;5010227;28;20182;-74
2023/10/26 04:01:47;;;;;;;4.23;2.93;;;10.40;99.90;;;;;;4990397;28;20186;-74
2023/10/26 04:04:13;;;;;;;3.47;3.03;;;10.40;99.90;;;;;;5010384;28;20186;-74
2023/10/26 04:06:38;;;;;;;3.97;3.10;;;10.50;99.90;;;;;;5009375;28;20763;-74
2023/10/26 04:09:04;;;;;;;3.13;2.33;;;10.50;99.90;;;;;;5005405;28;20193;-74
2023/10/26 04:11:30;;;;;;;2.67;2.47;;;10.50;99.90;;;;;;4998553;28;20270;-74
2023/10/26 04:13:57;;;;;;;1.87;1.77;;;10.40;99.90;;;;;;4998589;28;20512;-74
2023/10/26 04:16:24;;;;;;;2.83;2.30;;;10.40;99.90;;;;;;5008260;28;20246;-74
2023/10/26 04:18:49;;;;;;;2.37;2.17;;;10.40;99.90;;;;;;5019130;28;20441;-74
2023/10/26 04:21:15;;;;;;;2.50;2.30;;;10.40;99.90;;;;;;4987934;28;20780;-74
2023/10/26 04:23:41;;;;;;;2.80;2.23;;;10.40;99.90;;;;;;5009404;28;20229;-74
2023/10/26 04:26:09;;;;;;;3.50;2.87;;;10.40;99.90;;;;;;5010861;28;20684;-74
2023/10/26 04:28:35;;;;;;;11.93;3.10;;;10.50;99.90;;;;;;5007008;28;20293;-74
2023/10/26 04:31:04;;;;;;;2.37;2.17;;;10.40;99.90;;;;;;5010081;28;20441;-74
2023/10/26 04:33:30;;;;;;;4.93;2.50;;;10.30;99.90;;;;;;5008485;28;20998;-74
2023/10/26 04:36:00;;;;;;;2.50;2.30;;;10.30;99.90;;;;;;5008808;28;20485;-74
2023/10/26 04:38:26;;;;;;;2.30;2.10;;;10.30;99.90;;;;;;5007458;28;20429;-74
2023/10/26 04:40:52;;;;;;;2.70;2.50;;;10.30;99.90;;;;;;4992865;28;20543;-74
2023/10/26 04:43:17;;;;;;;2.80;2.60;;;10.30;99.90;;;;;;5008963;28;20978;-71
2023/10/26 04:45:43;;;;;;;3.00;2.70;;;10.40;99.90;;;;;;5008175;28;20260;-75
2023/10/26 04:48:09;;;;;;;2.43;2.23;;;10.40;99.90;;;;;;4992360;28;20739;-72
2023/10/26 04:50:34;;;;;;;2.93;2.63;;;10.50;99.90;;;;;;5007376;28;20202;-73
2023/10/26 04:53:02;;;;;;;2.13;1.97;;;10.50;99.90;;;;;;4992678;28;20252;-74
2023/10/26 04:55:32;;;;;;;2.20;2.00;;;10.50;99.90;;;;;;5008813;28;20210;-75
2023/10/26 04:57:59;;;;;;;2.20;1.90;;;10.40;99.90;;;;;;5009313;28;20953;-74
2023/10/26 05:00:24;;;;;;;1.83;1.73;;;10.50;99.90;;;;;;4992400;28;20957;-74
2023/10/26 05:02:50;;;;;;;2.17;2.07;;;10.50;99.90;;;;;;5008538;28;20437;-75
2023/10/26 05:05:16;;;;;;;1.90;1.80;;;10.60;99.90;;;;;;5005812;28;20209;-73
2023/10/26 05:07:42;;;;;;;1.63;1.53;;;10.60;99.90;;;;;;4990924;28;20220;-74
2023/10/26 05:10:08;;;;;;;2.70;2.10;;;10.50;99.90;;;;;;5007664;28;20178;-73
2023/10/26 05:12:34;;;;;;;2.27;2.07;;;10.50;99.90;;;;;;5008185;28;20985;-73
2023/10/26 05:14:59;;;;;;;3.90;1.70;;;10.50;99.90;;;;;;5008980;28;20555;-71
2023/10/26 05:17:25;;;;;;;2.03;1.80;;;10.50;99.90;;;;;;5006992;28;20618;-73
2023/10/26 05:19:51;;;;;;;1.97;1.70;;;10.50;99.90;;;;;;5006375;28;20731;-71
2023/10/26 05:22:18;;;;;;;1.90;1.80;;;10.50;99.90;;;;;;4982049;28;20178;-72
2023/10/26 05:24:44;;;;;;;1.77;1.67;;;10.50;99.90;;;;;;5009327;28;20273;-72
2023/10/26 05:27:10;;;;;;;1.93;1.83;;;10.60;99.90;;;;;;5006028;28;20655;-72
2023/10/26 05:29:36;;;;;;;2.20;2.00;;;10.50;99.90;;;;;;5007108;28;20190;-74
2023/10/26 05:32:02;;;;;;;2.60;2.40;;;10.50;99.90;;;;;;5008131;28;20989;-74
2023/10/26 05:34:29;;;;;;;2.83;2.07;;;10.50;99.90;;;;;;5005669;28;20194;-75
2023/10/26 05:36:55;;;;;;;2.83;2.40;;;10.50;99.90;;;;;;5004801;28;21292;-74
2023/10/26 05:39:20;;;;;;;4.80;2.43;;;10.40;99.90;;;;;;5005351;28;20539;-73
2023/10/26 05:41:46;;;;;;;4.30;2.57;;;10.40;99.90;;;;;;5003842;28;20573;-74
2023/10/26 05:44:12;;;;;;;3.07;2.83;;;10.30;99.90;;;;;;5002008;28;20523;-74
2023/10/26 05:46:37;;;;;;;3.30;2.50;;;10.40;99.90;;;;;;5005977;28;20205;-74
2023/10/26 05:49:04;;;;;;;3.10;2.40;;;10.40;99.90;;;;;;5006583;28;20198;-73
2023/10/26 05:51:29;;;;;;;2.83;1.97;;;10.30;99.90;;;;;;5023684;28;20194;-74
2023/10/26 05:53:55;;;;;;;2.10;2.00;;;10.30;99.90;;;;;;5006616;28;20452;-73
2023/10/26 05:56:21;;;;;;;2.50;2.30;;;10.30;99.90;;;;;;5007473;28;20208;-74
2023/10/26 05:58:50;;;;;;;1.80;1.70;;;10.40;99.90;;;;;;5007159;28;20800;-74
2023/10/26 06:01:19;;;;;;;2.80;1.97;;;10.50;99.90;;;;;;5002635;28;20281;-72
2023/10/26 06:03:45;;;;;;;2.10;2.00;;;10.50;99.90;;;;;;5003676;28;20446;-75
2023/10/26 06:06:11;;;;;;;1.70;1.60;;;10.50;99.90;;;;;;5006150;28;20444;-74
2023/10/26 06:08:37;;;;;;;1.87;1.77;;;10.60;99.90;;;;;;5002391;28;20472;-74
2023/10/26 06:11:03;;;;;;;1.93;1.70;;;10.60;99.90;;;;;;5007438;28;20927;-74
2023/10/26 06:13:29;;;;;;;1.70;1.60;;;10.60;99.90;;;;;;5007303;28;20484;-74
2023/10/26 06:15:55;;;;;;;1.80;1.70;;;10.60;99.90;;;;;;5007834;28;20437;-74
2023/10/26 06:18:20;;;;;;;1.80;1.70;;;10.60;99.90;;;;;;4990127;28;20186;-74
2023/10/26 06:20:57;;;;;;;3.47;1.80;;;10.60;99.90;;;;;;5005728;28;20181;-74
2023/10/26 06:23:23;;;;;;;1.63;1.50;;;10.60;99.90;;;;;;5006799;28;20655;-73
2023/10/26 06:25:48;;;;;;;2.30;1.67;;;10.50;99.90;;;;;;5006105;28;20530;-73
2023/10/26 06:28:14;;;;;;;1.83;1.67;;;10.50;99.90;;;;;;5010518;28;20182;-73
2023/10/26 06:30:40;;;;;;;1.83;1.73;;;10.50;99.90;;;;;;5007336;28;20186;-73
2023/10/26 06:33:05;;;;;;;2.20;2.10;;;10.40;99.90;;;;;;5012162;28;20715;-74
2023/10/26 06:35:32;;;;;;;2.30;2.07;;;10.30;99.90;;;;;;5005561;28;20680;-75
2023/10/26 06:37:58;;;;;;;1.90;1.80;;;10.30;99.90;;;;;;5006126;28;20186;-75
2023/10/26 06:40:24;;;;;;;2.40;2.20;;;10.30;99.90;;;;;;5006800;28;20464;-74
2023/10/26 06:42:50;;;;;;;2.33;2.07;;;10.30;99.90;;;;;;5003370;28;20473;-75
2023/10/26 06:45:15;;;;;;;7.47;2.23;;;10.30;99.90;;;;;;5006233;28;20682;-75
2023/10/26 06:47:42;;;;;;;3.07;2.10;;;10.30;99.90;;;;;;5005591;28;20755;-74
2023/10/26 06:50:08;;;;;;;2.37;1.93;;;10.40;99.90;;;;;;5009323;28;20236;-74
2023/10/26 06:52:34;;;;;;;1.73;1.63;;;10.40;99.90;;;;;;5005166;28;20523;-74
2023/10/26 06:54:59;;;;;;;2.10;1.70;;;10.40;99.90;;;;;;5005774;28;20436;-74
2023/10/26 06:57:26;;;;;;;2.13;1.80;;;10.40;99.90;;;;;;5023146;28;20221;-74
2023/10/26 06:59:51;;;;;;;2.10;1.67;;;10.50;99.90;;;;;;5005791;28;20182;-74
2023/10/26 07:02:17;;;;;;;2.93;1.83;;;10.50;99.90;;;;;;5006495;28;20428;-73
2023/10/26 07:04:43;;;;;;;1.83;1.60;;;10.40;99.90;;;;;;4989471;28;20192;-75
2023/10/26 07:07:08;;;;;;;3.50;2.20;;;10.40;99.90;;;;;;5003793;28;20285;-72
2023/10/26 07:09:36;;;;;;;2.33;1.90;;;10.40;99.90;;;;;;5004958;28;20205;-75
2023/10/26 07:12:02;;;;;;;1.90;1.80;;;10.40;99.90;;;;;;5006370;28;20683;-75
2023/10/26 07:14:28;;;;;;;2.30;2.10;;;10.50;99.90;;;;;;5006338;28;20441;-75
2023/10/26 07:16:54;;;;;;;1.80;1.70;;;10.50;99.90;;;;;;5009512;28;20202;-74
2023/10/26 07:19:20;;;;;;;2.00;1.80;;;10.60;99.90;;;;;;5009760;28;20560;-75
2023/10/26 07:21:45;;;;;;;2.43;1.77;;;10.60;99.90;;;;;;5009625;28;20182;-74
2023/10/26 07:24:11;;;;;;;1.93;1.83;;;10.60;99.90;;;;;;5011166;28;20219;-74
2023/10/26 07:26:37;;;;;;;1.70;1.60;;;10.60;99.90;;;;;;4991845;28;20202;-73
2023/10/26 07:29:03;;;;;;;2.50;2.10;;;10.70;99.90;;;;;;5009094;28;20632;-75
2023/10/26 07:31:28;;;;;;;2.63;2.00;;;10.70;99.90;;;;;;5010419;28;20200;-74
2023/10/26 07:33:54;;;;;;;1.60;1.50;;;10.70;99.90;;;;;;4995106;28;20179;-74
2023/10/26 07:36:20;;;;;;;1.47;1.37;;;10.70;99.90;;;;;;5009422;28;20221;-74
2023/10/26 07:38:46;;;;;;;1.73;1.53;;;10.80;99.90;;;;;;5009910;28;20190;-74
2023/10/26 07:41:11;;;;;;;1.63;1.53;;;10.70;99.90;;;;;;4993418;28;20186;-73
2023/10/26 07:43:37;;;;;;;1.83;1.73;;;10.70;99.90;;;;;;5005249;28;20206;-74
2023/10/26 07:46:03;;;;;;;2.07;1.87;;;10.80;99.90;;;;;;5006358;28;20210;-75
2023/10/26 07:48:31;;;;;;;2.10;1.77;;;10.80;99.90;;;;;;5008165;28;20198;-74
2023/10/26 07:50:57;;;;;;;2.70;2.00;;;10.80;99.90;;;;;;4992669;28;20448;-75
2023/10/26 07:53:23;;;;;;;2.30;2.10;;;10.90;99.90;;;;;;5009423;28;20483;-74
2023/10/26 07:55:50;;;;;;;4.03;2.33;;;10.90;99.90;;;;;;4990861;28;20207;-73
2023/10/26 07:58:16;;;;;;;3.53;2.50;;;10.90;99.90;;;;;;5008896;28;20553;-74
2023/10/26 08:00:42;;;;;;;2.90;2.60;;;10.90;99.90;;;;;;5008520;28;20512;-73
2023/10/26 08:03:07;;;;;;;2.80;2.50;;;10.90;99.90;;;;;;5009044;28;20174;-74
2023/10/26 08:05:34;;;;;;;3.73;2.50;;;10.90;99.90;;;;;;5007317;28;20221;-74
2023/10/26 08:08:01;;;;;;;2.17;1.97;;;10.90;99.90;;;;;;4997324;28;20660;-74
2023/10/26 08:10:27;;;;;;;2.67;2.07;;;10.90;99.90;;;;;;4990889;28;20446;-74
2023/10/26 08:12:53;;;;;;;3.40;2.30;;;10.90;99.90;;;;;;5008492;28;20464;-75
2023/10/26 08:15:20;;;;;;;2.33;1.80;;;10.90;99.90;;;;;;5007864;28;20182;-74
2023/10/26 08:17:46;;;;;;;5.60;2.13;;;10.90;99.90;;;;;;4990882;28;20418;-75
2023/10/26 08:20:12;;;;;;;1.37;1.27;;;11.00;99.90;;;;;;4991494;28;20606;-74
2023/10/26 08:22:38;;;;;;;2.50;2.10;;;11.00;99.90;;;;;;5005462;28;20425;-75
2023/10/26 08:25:04;;;;;;;1.70;1.60;;;11.10;99.90;;;;;;5006931;28;20456;-74
2023/10/26 08:27:31;;;;;;;2.43;1.87;;;11.10;99.90;;;;;;4992360;28;20189;-75
2023/10/26 08:29:57;;;;;;;2.63;2.40;;;11.10;99.90;;;;;;5008594;28;20448;-73
2023/10/26 08:32:23;;;;;;;2.03;1.80;;;11.20;99.90;;;;;;5005929;28;20507;-75
2023/10/26 08:34:49;;;;;;;2.10;1.63;;;11.20;99.90;;;;;;5007848;28;20178;-74
2023/10/26 08:37:17;;;;;;;1.70;1.60;;;11.30;99.90;;;;;;5004205;28;20542;-74
2023/10/26 08:39:43;;;;;;;2.30;2.10;;;11.20;99.90;;;;;;5008209;28;20505;-73
2023/10/26 08:42:09;;;;;;;3.03;1.50;;;11.20;99.90;;;;;;5005139;28;20528;-75
2023/10/26 08:44:35;;;;;;;2.10;1.90;;;11.20;99.90;;;;;;5007792;28;20544;-74
2023/10/26 08:47:05;;;;;;;2.10;1.90;;;11.20;99.90;;;;;;5007287;28;20461;-73
2023/10/26 08:49:31;;;;;;;4.60;2.57;;;11.20;99.90;;;;;;4992018;28;20451;-74
2023/10/26 08:51:58;;;;;;;3.40;3.07;;;11.30;99.90;;;;;;4989937;28;20497;-75
2023/10/26 08:54:26;;;;;;;2.50;2.27;;;11.30;99.90;;;;;;5006213;28;20438;-74
2023/10/26 08:56:51;;;;;;;2.60;2.00;;;11.40;99.90;;;;;;4994990;28;20460;-75
2023/10/26 08:59:17;;;;;;;2.20;2.00;;;11.40;99.90;;;;;;5008256;28;20433;-72
2023/10/26 09:01:49;;;;;;;2.00;1.70;;;11.40;99.90;;;;;;4990505;28;20190;-74
2023/10/26 09:04:15;;;;;;;3.63;2.07;;;11.40;99.90;;;;;;5008359;28;20178;-75
2023/10/26 09:06:52;;;;;;;1.80;1.70;;;11.40;99.90;;;;;;5006460;28;21014;-75
2023/10/26 09:09:18;;;;;;;3.33;2.20;;;11.50;99.90;;;;;;5022288;28;20433;-73
2023/10/26 09:11:46;;;;;;;1.87;1.77;;;11.50;99.90;;;;;;4991429;28;20433;-74
2023/10/26 09:14:19;;;;;;;2.27;2.10;;;11.50;99.90;;;;;;5003794;28;20575;-73
2023/10/26 09:16:46;;;;;;;2.87;2.57;;;11.50;99.90;;;;;;5003826;28;20436;-73
2023/10/26 09:19:12;;;;;;;2.83;1.87;;;11.40;99.90;;;;;;4989530;28;20515;-72
2023/10/26 09:21:56;;;;;;;2.47;2.00;;;11.50;99.90;;;;;;5024612;28;20436;-75
2023/10/26 09:24:25;;;;;;;1.80;1.70;;;11.50;99.90;;;;;;5006626;28;20831;-74
2023/10/26 09:26:55;;;;;;;2.33;2.00;;;11.50;99.90;;;;;;5007402;28;20848;-74
2023/10/26 09:29:34;;;;;;;2.47;2.27;;;11.50;99.90;;;;;;5007183;28;20449;-74
2023/10/26 09:32:00;;;;;;;3.63;2.60;;;11.50;99.90;;;;;;5007162;28;20465;-75
2023/10/26 09:34:27;;;;;;;2.37;2.17;;;11.50;99.90;;;;;;4991708;28;20525;-75
2023/10/26 09:37:11;;;;;;;2.23;2.03;;;11.50;99.90;;;;;;5005881;28;20248;-74
2023/10/26 09:39:38;;;;;;;2.40;2.17;;;11.50;99.90;;;;;;5008190;28;20429;-75
2023/10/26 09:42:11;;;;;;;2.30;2.10;;;11.50;99.90;;;;;;5006076;28;20831;-74
2023/10/26 09:44:36;;;;;;;2.53;2.33;;;11.60;99.90;;;;;;4988663;28;20534;-75
2023/10/26 09:47:03;;;;;;;2.30;2.10;;;11.50;99.90;;;;;;5004620;28;20448;-73
2023/10/26 09:49:30;;;;;;;2.60;2.40;;;11.60;99.90;;;;;;5004335;28;20190;-73
2023/10/26 09:51:55;;;;;;;2.23;1.67;;;11.60;99.90;;;;;;5003422;28;20456;-74
2023/10/26 09:54:27;;;;;;;2.00;1.80;;;11.60;99.90;;;;;;4987829;28;20444;-71
2023/10/26 09:57:15;;;;;;;2.70;2.17;;;11.60;99.90;;;;;;5007045;28;20212;-74
2023/10/26 09:59:41;;;;;;;2.33;2.13;;;11.60;99.90;;;;;;5008008;28;20512;-75
2023/10/26 10:02:16;;;;;;;3.47;1.73;;;11.60;99.90;;;;;;5006026;28;20468;-74
2023/10/26 10:04:43;;;;;;;2.00;1.80;;;11.60;99.90;;;;;;5006455;28;20443;-74
2023/10/26 10:07:08;;;;;;;1.73;1.50;;;11.60;99.90;;;;;;5004115;28;20468;-73
2023/10/26 10:10:03;;;;;;;1.67;1.57;;;11.60;99.90;;;;;;5006240;28;20954;-74
2023/10/26 10:12:28;;;;;;;1.93;1.70;;;11.60;99.90;;;;;;4989672;28;20216;-75
2023/10/26 10:14:58;;;;;;;1.73;1.63;;;11.60;99.90;;;;;;5004182;28;20532;-74
2023/10/26 10:17:50;;;;;;;1.87;1.70;;;11.60;99.90;;;;;;5004570;28;20222;-74
2023/10/26 10:20:18;;;;;;;2.10;1.37;;;11.60;99.90;;;;;;4996118;28;20448;-73
2023/10/26 10:22:44;;;;;;;2.10;1.90;;;11.60;99.90;;;;;;5022556;28;20433;-74
2023/10/26 10:25:10;;;;;;;1.80;1.70;;;11.70;99.90;;;;;;5020254;28;20441;-73
2023/10/26 10:27:58;;;;;;;1.70;1.60;;;11.70;99.90;;;;;;5006619;28;20190;-75
2023/10/26 10:30:29;;;;;;;2.37;2.17;;;11.70;99.90;;;;;;4998402;28;20449;-75
2023/10/26 10:32:56;;;;;;;1.80;1.70;;;11.70;99.90;;;;;;5022111;28;20464;-75
2023/10/26 10:35:22;;;;;;;1.97;1.80;;;11.80;99.90;;;;;;5006397;28;20437;-75
2023/10/26 10:38:15;;;;;;;1.63;1.53;;;11.80;99.90;;;;;;5006898;28;20810;-73
2023/10/26 10:41:01;;;;;;;2.80;1.63;;;11.80;99.90;;;;;;5004680;28;20193;-74
2023/10/26 10:43:44;;;;;;;2.00;1.90;;;11.80;99.90;;;;;;5009529;28;20448;-75
2023/10/26 10:46:14;;;;;;;1.70;1.43;;;11.90;99.90;;;;;;5004034;28;20473;-74
2023/10/26 10:48:55;;;;;;;2.53;1.90;;;11.90;99.90;;;;;;5006774;28;20868;-75
2023/10/26 10:51:21;;;;;;;1.93;1.73;;;11.90;99.90;;;;;;5014683;28;20486;-74
2023/10/26 10:53:50;;;;;;;2.70;1.57;;;11.90;99.90;;;;;;5004513;28;20484;-74
2023/10/26 10:56:16;;;;;;;2.20;2.00;;;11.90;99.90;;;;;;5012400;28;20829;-75
2023/10/26 10:58:42;;;;;;;2.27;2.07;;;12.00;99.90;;;;;;4988949;28;20543;-74
2023/10/26 11:01:08;;;;;;;1.67;1.57;;;12.00;99.90;;;;;;5003127;28;20186;-74
2023/10/26 11:03:33;;;;;;;1.87;1.77;;;12.00;99.90;;;;;;5004590;28;20272;-75
2023/10/26 11:05:59;;;;;;;2.10;2.00;;;12.00;99.90;;;;;;5005069;28;20205;-75
2023/10/26 11:08:25;;;;;;;3.17;2.87;;;12.10;99.90;;;;;;5002848;28;20586;-74
2023/10/26 11:10:51;;;;;;;4.03;3.63;;;12.10;99.90;;;;;;4988723;28;20197;-74
2023/10/26 11:13:21;;;;;;;4.77;3.27;;;12.20;99.90;;;;;;5004870;28;20512;-74
2023/10/26 11:15:47;;;;;;;2.83;2.40;;;12.20;99.90;;;;;;5017901;28;20453;-74
2023/10/26 11:18:14;;;;;;;2.53;2.33;;;12.20;99.90;;;;;;5005593;28;20429;-75
2023/10/26 11:20:47;;;;;;;3.87;3.20;;;12.20;99.90;;;;;;4989224;28;20433;-75
2023/10/26 11:23:16;;;;;;;4.50;3.10;;;12.20;99.90;;;;;;4993061;28;20433;-75
2023/10/26 11:25:44;;;;;;;5.90;3.90;;;12.30;99.90;;;;;;5002218;28;20488;-75
2023/10/26 11:28:10;;;;;;;4.13;3.57;;;12.30;99.90;;;;;;4988861;28;20425;-75
2023/10/26 11:30:57;;;;;;;5.93;3.23;;;12.30;99.90;;;;;;5005331;28;20467;-75
2023/10/26 11:33:39;;;;;;;4.67;3.00;;;12.30;99.90;;;;;;5005658;28;20482;-75
2023/10/26 11:36:12;;;;;;;3.60;3.30;;;12.30;99.90;;;;;;5004335;28;20556;-75
2023/10/26 11:38:46;;;;;;;3.10;2.70;;;12.30;99.90;;;;;;5005993;28;20433;-75
2023/10/26 11:41:25;;;;;;;5.87;3.50;;;12.30;99.90;;;;;;5005671;28;20970;-75
2023/10/26 11:43:51;;;;;;;3.90;3.30;;;12.30;99.90;;;;;;5003043;28;20448;-73
2023/10/26 11:46:36;;;;;;;3.77;3.20;;;12.30;99.90;;;;;;5003152;28;20448;-75
2023/10/26 11:49:04;;;;;;;3.37;2.73;;;12.30;99.90;;;;;;5019975;28;20953;-75
2023/10/26 11:51:31;;;;;;;2.90;2.33;;;12.30;99.90;;;;;;5005699;28;20910;-75
2023/10/26 11:54:08;;;;;;;2.50;2.23;;;12.30;99.90;;;;;;4986388;28;20466;-75
2023/10/26 11:56:34;;;;;;;3.80;3.00;;;12.30;99.90;;;;;;5004107;28;20978;-75
2023/10/26 11:58:59;;;;;;;4.43;3.10;;;12.30;99.90;;;;;;5002814;28;20455;-73
2023/10/26 12:01:25;;;;;;;2.70;2.27;;;12.30;99.90;;;;;;5008442;28;20279;-75
2023/10/26 12:03:51;;;;;;;3.57;2.73;;;12.30;99.90;;;;;;5008638;28;20356;-74
2023/10/26 12:06:17;;;;;;;1.87;1.77;;;12.40;99.90;;;;;;5010070;28;20991;-75
2023/10/26 12:08:42;;;;;;;3.87;3.00;;;12.30;99.90;;;;;;5007257;28;20193;-75
2023/10/26 12:11:09;;;;;;;3.27;3.07;;;12.40;99.90;;;;;;5007612;28;20182;-75
2023/10/26 12:13:35;;;;;;;3.03;2.73;;;12.40;99.90;;;;;;5007745;28;20206;-74
2023/10/26 12:16:02;;;;;;;3.17;2.87;;;12.40;99.90;;;;;;5007956;28;20453;-75
2023/10/26 12:18:28;;;;;;;3.40;2.63;;;12.50;99.90;;;;;;4990846;28;20436;-75
2023/10/26 12:20:54;;;;;;;5.70;2.90;;;12.50;99.90;;;;;;5006962;28;20422;-75
2023/10/26 12:23:19;;;;;;;5.40;3.57;;;12.50;99.90;;;;;;5007139;28;20222;-73
2023/10/26 12:25:45;;;;;;;4.50;2.77;;;12.50;99.90;;;;;;5009161;28;20210;-75
2023/10/26 12:28:11;;;;;;;3.10;2.83;;;12.50;99.90;;;;;;5007921;28;20321;-75
2023/10/26 12:30:37;;;;;;;5.97;2.60;;;12.60;99.90;;;;;;5007439;28;20615;-75
2023/10/26 12:33:02;;;;;;;4.27;2.70;;;12.60;99.90;;;;;;4994593;28;20237;-74
2023/10/26 12:35:28;;;;;;;3.77;2.47;;;12.60;99.90;;;;;;5024552;28;20939;-75
2023/10/26 12:37:54;;;;;;;3.63;2.57;;;12.60;99.90;;;;;;5008060;28;20289;-75
2023/10/26 12:40:20;;;;;;;2.90;2.40;;;12.60;99.90;;;;;;4989509;28;20193;-74
2023/10/26 12:42:46;;;;;;;2.80;2.60;;;12.60;99.90;;;;;;5007951;28;20186;-75
2023/10/26 12:45:13;;;;;;;5.07;3.70;;;12.60;99.90;;;;;;4991269;28;20433;-75
2023/10/26 12:47:39;;;;;;;6.50;4.10;;;12.60;99.90;;;;;;5009025;28;20429;-75